sensor_id;sensor_type;location;lat;lon;timestamp;P1;durP1;ratioP1;P2;durP2;ratioP2
47287;SDS011;33020;53.008;13.558;2023-04-25T00:01:05;4.23;;;2.30;;
47287;SDS011;33020;53.008;13.558;2023-04-25T00:03:32;4.07;;;2.20;;
47287;SDS011;33020;53.008;13.558;2023-04-25T00:05:59;4.63;;;2.93;;
47287;SDS011;33020;53.008;13.558;2023-04-25T00:08:29;5.43;;;2.23;;
47287;SDS011;33020;53.008;13.558;2023-04-25T00:10:57;3.63;;;2.37;;
47287;SDS011;33020;53.008;13.558;2023-04-25T00:13:24;5.23;;;2.43;;
47287;SDS011;33020;53.008;13.558;2023-04-25T00:15:52;5.37;;;2.77;;
47287;SDS011;33020;53.008;13.558;2023-04-25T00:18:22;7.20;;;2.40;;
47287;SDS011;33020;53.008;13.558;2023-04-25T00:20:49;4.93;;;2.50;;
47287;SDS011;33020;53.008;13.558;2023-04-25T00:23:16;5.00;;;2.33;;
47287;SDS011;33020;53.008;13.558;2023-04-25T00:25:46;4.57;;;2.17;;
47287;SDS011;33020;53.008;13.558;2023-04-25T00:28:14;4.57;;;2.77;;
47287;SDS011;33020;53.008;13.558;2023-04-25T00:30:41;4.53;;;2.20;;
47287;SDS011;33020;53.008;13.558;2023-04-25T00:33:08;2.73;;;2.10;;
47287;SDS011;33020;53.008;13.558;2023-04-25T00:35:35;6.97;;;2.40;;
47287;SDS011;33020;53.008;13.558;2023-04-25T00:38:02;4.50;;;2.83;;
47287;SDS011;33020;53.008;13.558;2023-04-25T00:40:29;5.30;;;2.73;;
47287;SDS011;33020;53.008;13.558;2023-04-25T00:42:55;5.03;;;2.73;;
47287;SDS011;33020;53.008;13.558;2023-04-25T00:45:22;5.77;;;2.43;;
47287;SDS011;33020;53.008;13.558;2023-04-25T00:47:54;3.13;;;2.47;;
47287;SDS011;33020;53.008;13.558;2023-04-25T00:50:20;4.27;;;2.87;;
47287;SDS011;33020;53.008;13.558;2023-04-25T00:52:47;4.30;;;2.60;;
47287;SDS011;33020;53.008;13.558;2023-04-25T00:55:14;3.83;;;2.20;;
47287;SDS011;33020;53.008;13.558;2023-04-25T00:57:42;4.20;;;2.30;;
47287;SDS011;33020;53.008;13.558;2023-04-25T01:00:09;4.90;;;2.83;;
47287;SDS011;33020;53.008;13.558;2023-04-25T01:02:37;3.77;;;2.67;;
47287;SDS011;33020;53.008;13.558;2023-04-25T01:05:04;5.40;;;3.03;;
47287;SDS011;33020;53.008;13.558;2023-04-25T01:07:31;5.97;;;2.50;;
47287;SDS011;33020;53.008;13.558;2023-04-25T01:09:58;5.07;;;3.13;;
47287;SDS011;33020;53.008;13.558;2023-04-25T01:12:24;8.30;;;3.17;;
47287;SDS011;33020;53.008;13.558;2023-04-25T01:14:51;6.90;;;3.47;;
47287;SDS011;33020;53.008;13.558;2023-04-25T01:17:19;4.93;;;2.83;;
47287;SDS011;33020;53.008;13.558;2023-04-25T01:19:46;4.30;;;2.83;;
47287;SDS011;33020;53.008;13.558;2023-04-25T01:22:14;6.10;;;2.73;;
47287;SDS011;33020;53.008;13.558;2023-04-25T01:24:42;3.43;;;2.70;;
47287;SDS011;33020;53.008;13.558;2023-04-25T01:27:09;6.10;;;3.00;;
47287;SDS011;33020;53.008;13.558;2023-04-25T01:29:36;4.53;;;3.43;;
47287;SDS011;33020;53.008;13.558;2023-04-25T01:32:04;6.57;;;3.20;;
47287;SDS011;33020;53.008;13.558;2023-04-25T01:34:31;6.27;;;3.00;;
47287;SDS011;33020;53.008;13.558;2023-04-25T01:36:59;9.47;;;3.53;;
47287;SDS011;33020;53.008;13.558;2023-04-25T01:39:26;6.03;;;2.77;;
47287;SDS011;33020;53.008;13.558;2023-04-25T01:41:53;7.57;;;3.07;;
47287;SDS011;33020;53.008;13.558;2023-04-25T01:44:23;5.83;;;2.70;;
47287;SDS011;33020;53.008;13.558;2023-04-25T01:46:49;7.57;;;3.20;;
47287;SDS011;33020;53.008;13.558;2023-04-25T01:49:16;5.07;;;3.43;;
47287;SDS011;33020;53.008;13.558;2023-04-25T01:51:43;3.87;;;2.77;;
47287;SDS011;33020;53.008;13.558;2023-04-25T01:54:10;8.63;;;3.47;;
47287;SDS011;33020;53.008;13.558;2023-04-25T01:56:37;6.90;;;3.50;;
47287;SDS011;33020;53.008;13.558;2023-04-25T01:59:05;5.00;;;2.77;;
47287;SDS011;33020;53.008;13.558;2023-04-25T02:01:32;5.23;;;3.33;;
47287;SDS011;33020;53.008;13.558;2023-04-25T02:03:59;4.37;;;3.07;;
47287;SDS011;33020;53.008;13.558;2023-04-25T02:06:26;6.47;;;3.43;;
47287;SDS011;33020;53.008;13.558;2023-04-25T02:08:52;5.23;;;3.13;;
47287;SDS011;33020;53.008;13.558;2023-04-25T02:11:19;6.40;;;3.43;;
47287;SDS011;33020;53.008;13.558;2023-04-25T02:13:46;6.63;;;3.20;;
47287;SDS011;33020;53.008;13.558;2023-04-25T02:16:12;7.33;;;3.27;;
47287;SDS011;33020;53.008;13.558;2023-04-25T02:18:40;6.40;;;3.17;;
47287;SDS011;33020;53.008;13.558;2023-04-25T02:21:06;8.97;;;3.67;;
47287;SDS011;33020;53.008;13.558;2023-04-25T02:23:33;7.20;;;3.70;;
47287;SDS011;33020;53.008;13.558;2023-04-25T02:26:00;9.00;;;4.13;;
47287;SDS011;33020;53.008;13.558;2023-04-25T02:28:26;10.23;;;4.07;;
47287;SDS011;33020;53.008;13.558;2023-04-25T02:30:53;5.60;;;3.87;;
47287;SDS011;33020;53.008;13.558;2023-04-25T02:33:20;7.77;;;4.00;;
47287;SDS011;33020;53.008;13.558;2023-04-25T02:35:47;7.17;;;3.83;;
47287;SDS011;33020;53.008;13.558;2023-04-25T02:38:14;6.63;;;3.77;;
47287;SDS011;33020;53.008;13.558;2023-04-25T02:40:41;7.50;;;3.50;;
47287;SDS011;33020;53.008;13.558;2023-04-25T02:43:07;5.53;;;3.80;;
47287;SDS011;33020;53.008;13.558;2023-04-25T02:45:34;6.70;;;3.60;;
47287;SDS011;33020;53.008;13.558;2023-04-25T02:48:02;8.40;;;4.83;;
47287;SDS011;33020;53.008;13.558;2023-04-25T02:50:29;6.73;;;3.67;;
47287;SDS011;33020;53.008;13.558;2023-04-25T02:52:56;7.37;;;3.47;;
47287;SDS011;33020;53.008;13.558;2023-04-25T02:55:22;7.50;;;3.80;;
47287;SDS011;33020;53.008;13.558;2023-04-25T02:57:53;6.83;;;3.70;;
47287;SDS011;33020;53.008;13.558;2023-04-25T03:00:21;7.00;;;3.67;;
47287;SDS011;33020;53.008;13.558;2023-04-25T03:02:48;6.70;;;3.90;;
47287;SDS011;33020;53.008;13.558;2023-04-25T03:05:15;7.67;;;3.53;;
47287;SDS011;33020;53.008;13.558;2023-04-25T03:07:43;7.70;;;4.37;;
47287;SDS011;33020;53.008;13.558;2023-04-25T03:10:11;8.40;;;4.30;;
47287;SDS011;33020;53.008;13.558;2023-04-25T03:12:37;7.30;;;4.17;;
47287;SDS011;33020;53.008;13.558;2023-04-25T03:15:04;6.47;;;3.63;;
47287;SDS011;33020;53.008;13.558;2023-04-25T03:17:31;10.90;;;4.33;;
47287;SDS011;33020;53.008;13.558;2023-04-25T03:19:58;7.17;;;4.40;;
47287;SDS011;33020;53.008;13.558;2023-04-25T03:22:25;9.13;;;3.80;;
47287;SDS011;33020;53.008;13.558;2023-04-25T03:24:51;7.77;;;3.70;;
47287;SDS011;33020;53.008;13.558;2023-04-25T03:27:18;9.10;;;4.10;;
47287;SDS011;33020;53.008;13.558;2023-04-25T03:29:45;7.13;;;4.10;;
47287;SDS011;33020;53.008;13.558;2023-04-25T03:32:11;7.67;;;4.00;;
47287;SDS011;33020;53.008;13.558;2023-04-25T03:34:38;6.97;;;3.80;;
47287;SDS011;33020;53.008;13.558;2023-04-25T03:37:05;8.00;;;4.20;;
47287;SDS011;33020;53.008;13.558;2023-04-25T03:39:32;8.20;;;4.17;;
47287;SDS011;33020;53.008;13.558;2023-04-25T03:41:58;6.83;;;4.00;;
47287;SDS011;33020;53.008;13.558;2023-04-25T03:44:25;6.87;;;4.50;;
47287;SDS011;33020;53.008;13.558;2023-04-25T03:46:52;6.13;;;3.27;;
47287;SDS011;33020;53.008;13.558;2023-04-25T03:49:18;6.53;;;3.87;;
47287;SDS011;33020;53.008;13.558;2023-04-25T03:51:45;6.83;;;4.00;;
47287;SDS011;33020;53.008;13.558;2023-04-25T03:54:12;7.67;;;3.57;;
47287;SDS011;33020;53.008;13.558;2023-04-25T03:56:39;6.33;;;3.73;;
47287;SDS011;33020;53.008;13.558;2023-04-25T03:59:05;5.13;;;3.17;;
47287;SDS011;33020;53.008;13.558;2023-04-25T04:01:32;7.57;;;3.73;;
47287;SDS011;33020;53.008;13.558;2023-04-25T04:03:59;9.73;;;4.23;;
47287;SDS011;33020;53.008;13.558;2023-04-25T04:06:26;9.77;;;4.20;;
47287;SDS011;33020;53.008;13.558;2023-04-25T04:08:53;5.67;;;3.20;;
47287;SDS011;33020;53.008;13.558;2023-04-25T04:11:20;8.03;;;3.30;;
47287;SDS011;33020;53.008;13.558;2023-04-25T04:13:46;6.87;;;3.90;;
47287;SDS011;33020;53.008;13.558;2023-04-25T04:16:14;6.67;;;3.63;;
47287;SDS011;33020;53.008;13.558;2023-04-25T04:18:41;7.77;;;4.13;;
47287;SDS011;33020;53.008;13.558;2023-04-25T04:21:08;8.03;;;3.40;;
47287;SDS011;33020;53.008;13.558;2023-04-25T04:23:34;6.97;;;3.70;;
47287;SDS011;33020;53.008;13.558;2023-04-25T04:26:04;6.47;;;3.47;;
47287;SDS011;33020;53.008;13.558;2023-04-25T04:28:31;5.70;;;3.80;;
47287;SDS011;33020;53.008;13.558;2023-04-25T04:30:58;10.27;;;4.07;;
47287;SDS011;33020;53.008;13.558;2023-04-25T04:33:25;6.63;;;3.60;;
47287;SDS011;33020;53.008;13.558;2023-04-25T04:35:52;7.90;;;4.77;;
47287;SDS011;33020;53.008;13.558;2023-04-25T04:38:19;6.53;;;4.63;;
47287;SDS011;33020;53.008;13.558;2023-04-25T04:40:48;8.97;;;3.73;;
47287;SDS011;33020;53.008;13.558;2023-04-25T04:43:14;8.53;;;4.10;;
47287;SDS011;33020;53.008;13.558;2023-04-25T04:45:43;7.07;;;4.00;;
47287;SDS011;33020;53.008;13.558;2023-04-25T04:48:11;6.87;;;4.03;;
47287;SDS011;33020;53.008;13.558;2023-04-25T04:50:40;11.70;;;4.30;;
47287;SDS011;33020;53.008;13.558;2023-04-25T04:53:07;7.20;;;4.00;;
47287;SDS011;33020;53.008;13.558;2023-04-25T04:55:34;10.20;;;4.13;;
47287;SDS011;33020;53.008;13.558;2023-04-25T04:58:01;7.43;;;4.10;;
47287;SDS011;33020;53.008;13.558;2023-04-25T05:00:27;7.40;;;4.53;;
47287;SDS011;33020;53.008;13.558;2023-04-25T05:02:56;9.20;;;4.50;;
47287;SDS011;33020;53.008;13.558;2023-04-25T05:05:23;7.00;;;3.87;;
47287;SDS011;33020;53.008;13.558;2023-04-25T05:07:50;11.63;;;4.83;;
47287;SDS011;33020;53.008;13.558;2023-04-25T05:10:17;8.10;;;4.43;;
47287;SDS011;33020;53.008;13.558;2023-04-25T05:12:44;7.50;;;3.90;;
47287;SDS011;33020;53.008;13.558;2023-04-25T05:15:11;9.80;;;4.23;;
47287;SDS011;33020;53.008;13.558;2023-04-25T05:17:38;8.30;;;4.40;;
47287;SDS011;33020;53.008;13.558;2023-04-25T05:20:06;9.60;;;3.77;;
47287;SDS011;33020;53.008;13.558;2023-04-25T05:22:35;8.53;;;4.43;;
47287;SDS011;33020;53.008;13.558;2023-04-25T05:25:02;7.10;;;4.77;;
47287;SDS011;33020;53.008;13.558;2023-04-25T05:27:32;7.87;;;3.93;;
47287;SDS011;33020;53.008;13.558;2023-04-25T05:29:59;6.90;;;3.80;;
47287;SDS011;33020;53.008;13.558;2023-04-25T05:32:26;6.10;;;3.80;;
47287;SDS011;33020;53.008;13.558;2023-04-25T05:34:53;7.07;;;4.17;;
47287;SDS011;33020;53.008;13.558;2023-04-25T05:37:19;5.80;;;3.63;;
47287;SDS011;33020;53.008;13.558;2023-04-25T05:39:46;8.77;;;3.70;;
47287;SDS011;33020;53.008;13.558;2023-04-25T05:42:13;13.47;;;4.27;;
47287;SDS011;33020;53.008;13.558;2023-04-25T05:44:40;7.87;;;4.47;;
47287;SDS011;33020;53.008;13.558;2023-04-25T05:47:06;9.07;;;4.47;;
47287;SDS011;33020;53.008;13.558;2023-04-25T05:49:33;5.70;;;4.10;;
47287;SDS011;33020;53.008;13.558;2023-04-25T05:52:00;6.87;;;3.60;;
47287;SDS011;33020;53.008;13.558;2023-04-25T05:54:27;6.90;;;4.13;;
47287;SDS011;33020;53.008;13.558;2023-04-25T05:56:55;7.53;;;3.90;;
47287;SDS011;33020;53.008;13.558;2023-04-25T05:59:22;9.03;;;4.30;;
47287;SDS011;33020;53.008;13.558;2023-04-25T06:01:52;6.87;;;4.00;;
47287;SDS011;33020;53.008;13.558;2023-04-25T06:04:18;5.80;;;3.80;;
47287;SDS011;33020;53.008;13.558;2023-04-25T06:06:45;8.90;;;4.20;;
47287;SDS011;33020;53.008;13.558;2023-04-25T06:09:12;5.57;;;4.03;;
47287;SDS011;33020;53.008;13.558;2023-04-25T06:11:39;7.80;;;4.23;;
47287;SDS011;33020;53.008;13.558;2023-04-25T06:14:06;6.17;;;4.00;;
47287;SDS011;33020;53.008;13.558;2023-04-25T06:16:33;5.67;;;4.00;;
47287;SDS011;33020;53.008;13.558;2023-04-25T06:19:00;5.30;;;3.77;;
47287;SDS011;33020;53.008;13.558;2023-04-25T06:21:30;8.23;;;4.23;;
47287;SDS011;33020;53.008;13.558;2023-04-25T06:23:57;8.40;;;4.40;;
47287;SDS011;33020;53.008;13.558;2023-04-25T06:26:24;7.77;;;4.40;;
47287;SDS011;33020;53.008;13.558;2023-04-25T06:28:51;10.20;;;4.53;;
47287;SDS011;33020;53.008;13.558;2023-04-25T06:31:17;5.87;;;3.67;;
47287;SDS011;33020;53.008;13.558;2023-04-25T06:33:44;7.33;;;4.53;;
47287;SDS011;33020;53.008;13.558;2023-04-25T06:36:11;6.33;;;4.23;;
47287;SDS011;33020;53.008;13.558;2023-04-25T06:38:38;7.17;;;4.57;;
47287;SDS011;33020;53.008;13.558;2023-04-25T06:41:04;6.90;;;4.17;;
47287;SDS011;33020;53.008;13.558;2023-04-25T06:43:31;9.10;;;4.90;;
47287;SDS011;33020;53.008;13.558;2023-04-25T06:46:00;7.27;;;4.60;;
47287;SDS011;33020;53.008;13.558;2023-04-25T06:48:32;7.83;;;4.40;;
47287;SDS011;33020;53.008;13.558;2023-04-25T06:50:59;7.80;;;4.80;;
47287;SDS011;33020;53.008;13.558;2023-04-25T06:53:26;7.50;;;4.60;;
47287;SDS011;33020;53.008;13.558;2023-04-25T06:55:53;9.83;;;4.80;;
47287;SDS011;33020;53.008;13.558;2023-04-25T06:58:20;11.27;;;5.10;;
47287;SDS011;33020;53.008;13.558;2023-04-25T07:00:46;7.40;;;4.07;;
47287;SDS011;33020;53.008;13.558;2023-04-25T07:03:13;5.20;;;3.70;;
47287;SDS011;33020;53.008;13.558;2023-04-25T07:05:41;8.17;;;4.27;;
47287;SDS011;33020;53.008;13.558;2023-04-25T07:08:07;5.30;;;3.93;;
47287;SDS011;33020;53.008;13.558;2023-04-25T07:10:34;9.67;;;4.93;;
47287;SDS011;33020;53.008;13.558;2023-04-25T07:13:01;10.17;;;4.40;;
47287;SDS011;33020;53.008;13.558;2023-04-25T07:15:28;6.00;;;4.30;;
47287;SDS011;33020;53.008;13.558;2023-04-25T07:17:54;8.97;;;4.00;;
47287;SDS011;33020;53.008;13.558;2023-04-25T07:20:21;8.77;;;3.97;;
47287;SDS011;33020;53.008;13.558;2023-04-25T07:22:48;7.47;;;4.30;;
47287;SDS011;33020;53.008;13.558;2023-04-25T07:25:16;7.53;;;4.17;;
47287;SDS011;33020;53.008;13.558;2023-04-25T07:27:45;5.57;;;3.27;;
47287;SDS011;33020;53.008;13.558;2023-04-25T07:30:13;7.03;;;4.37;;
47287;SDS011;33020;53.008;13.558;2023-04-25T07:32:40;7.60;;;4.27;;
47287;SDS011;33020;53.008;13.558;2023-04-25T07:35:09;6.13;;;3.50;;
47287;SDS011;33020;53.008;13.558;2023-04-25T07:37:36;9.40;;;4.73;;
47287;SDS011;33020;53.008;13.558;2023-04-25T07:40:03;5.77;;;3.93;;
47287;SDS011;33020;53.008;13.558;2023-04-25T07:42:30;11.33;;;4.00;;
47287;SDS011;33020;53.008;13.558;2023-04-25T07:44:57;8.27;;;4.37;;
47287;SDS011;33020;53.008;13.558;2023-04-25T07:47:27;11.10;;;3.60;;
47287;SDS011;33020;53.008;13.558;2023-04-25T07:49:53;14.10;;;4.33;;
47287;SDS011;33020;53.008;13.558;2023-04-25T07:52:20;6.20;;;3.50;;
47287;SDS011;33020;53.008;13.558;2023-04-25T07:54:47;11.07;;;4.37;;
47287;SDS011;33020;53.008;13.558;2023-04-25T07:57:14;13.13;;;4.73;;
47287;SDS011;33020;53.008;13.558;2023-04-25T07:59:43;13.70;;;3.90;;
47287;SDS011;33020;53.008;13.558;2023-04-25T08:02:10;10.13;;;3.90;;
47287;SDS011;33020;53.008;13.558;2023-04-25T08:04:37;14.70;;;4.43;;
47287;SDS011;33020;53.008;13.558;2023-04-25T08:07:04;10.30;;;3.80;;
47287;SDS011;33020;53.008;13.558;2023-04-25T08:09:31;11.23;;;4.27;;
47287;SDS011;33020;53.008;13.558;2023-04-25T08:12:03;15.30;;;6.43;;
47287;SDS011;33020;53.008;13.558;2023-04-25T08:14:30;15.10;;;4.47;;
47287;SDS011;33020;53.008;13.558;2023-04-25T08:17:05;10.50;;;4.20;;
47287;SDS011;33020;53.008;13.558;2023-04-25T08:19:32;11.60;;;3.70;;
47287;SDS011;33020;53.008;13.558;2023-04-25T08:21:58;13.30;;;3.50;;
47287;SDS011;33020;53.008;13.558;2023-04-25T08:24:25;8.30;;;3.73;;
47287;SDS011;33020;53.008;13.558;2023-04-25T08:26:52;10.20;;;3.30;;
47287;SDS011;33020;53.008;13.558;2023-04-25T08:29:19;7.33;;;3.57;;
47287;SDS011;33020;53.008;13.558;2023-04-25T08:31:46;14.60;;;4.93;;
47287;SDS011;33020;53.008;13.558;2023-04-25T08:34:14;8.93;;;3.53;;
47287;SDS011;33020;53.008;13.558;2023-04-25T08:36:41;6.80;;;2.92;;
47287;SDS011;33020;53.008;13.558;2023-04-25T08:39:08;11.03;;;3.50;;
47287;SDS011;33020;53.008;13.558;2023-04-25T08:41:36;9.25;;;3.78;;
47287;SDS011;33020;53.008;13.558;2023-04-25T08:44:03;10.50;;;3.58;;
47287;SDS011;33020;53.008;13.558;2023-04-25T08:46:33;8.75;;;3.63;;
47287;SDS011;33020;53.008;13.558;2023-04-25T08:49:00;8.02;;;3.22;;
47287;SDS011;33020;53.008;13.558;2023-04-25T08:51:29;10.43;;;3.72;;
47287;SDS011;33020;53.008;13.558;2023-04-25T08:54:05;14.32;;;4.10;;
47287;SDS011;33020;53.008;13.558;2023-04-25T08:56:55;10.13;;;3.17;;
47287;SDS011;33020;53.008;13.558;2023-04-25T08:59:24;8.43;;;3.67;;
47287;SDS011;33020;53.008;13.558;2023-04-25T09:01:51;7.15;;;3.58;;
47287;SDS011;33020;53.008;13.558;2023-04-25T09:04:18;9.10;;;3.60;;
47287;SDS011;33020;53.008;13.558;2023-04-25T09:06:47;11.60;;;5.07;;
47287;SDS011;33020;53.008;13.558;2023-04-25T09:09:14;10.93;;;4.30;;
47287;SDS011;33020;53.008;13.558;2023-04-25T09:11:40;10.43;;;3.88;;
47287;SDS011;33020;53.008;13.558;2023-04-25T09:14:17;7.15;;;3.83;;
47287;SDS011;33020;53.008;13.558;2023-04-25T09:19:29;13.40;;;4.82;;
47287;SDS011;33020;53.008;13.558;2023-04-25T09:22:06;10.73;;;4.28;;
47287;SDS011;33020;53.008;13.558;2023-04-25T09:24:41;23.65;;;10.13;;
47287;SDS011;33020;53.008;13.558;2023-04-25T09:27:11;11.98;;;4.45;;
47287;SDS011;33020;53.008;13.558;2023-04-25T09:29:40;8.35;;;4.63;;
47287;SDS011;33020;53.008;13.558;2023-04-25T09:34:49;10.50;;;4.57;;
47287;SDS011;33020;53.008;13.558;2023-04-25T09:37:20;8.60;;;4.03;;
47287;SDS011;33020;53.008;13.558;2023-04-25T09:39:56;5.72;;;3.30;;
47287;SDS011;33020;53.008;13.558;2023-04-25T09:42:29;12.52;;;11.35;;
47287;SDS011;33020;53.008;13.558;2023-04-25T09:44:58;5.85;;;3.20;;
47287;SDS011;33020;53.008;13.558;2023-04-25T09:47:25;6.97;;;3.95;;
47287;SDS011;33020;53.008;13.558;2023-04-25T09:49:53;6.50;;;2.83;;
47287;SDS011;33020;53.008;13.558;2023-04-25T09:52:22;6.15;;;3.45;;
47287;SDS011;33020;53.008;13.558;2023-04-25T09:54:51;8.30;;;3.50;;
47287;SDS011;33020;53.008;13.558;2023-04-25T09:57:19;10.23;;;3.30;;
47287;SDS011;33020;53.008;13.558;2023-04-25T09:59:50;7.63;;;3.65;;
47287;SDS011;33020;53.008;13.558;2023-04-25T10:02:19;9.38;;;4.05;;
47287;SDS011;33020;53.008;13.558;2023-04-25T10:04:51;6.35;;;3.75;;
47287;SDS011;33020;53.008;13.558;2023-04-25T10:07:27;6.93;;;3.22;;
47287;SDS011;33020;53.008;13.558;2023-04-25T10:10:00;6.97;;;3.08;;
47287;SDS011;33020;53.008;13.558;2023-04-25T10:12:32;10.68;;;3.08;;
47287;SDS011;33020;53.008;13.558;2023-04-25T10:15:00;5.32;;;2.47;;
47287;SDS011;33020;53.008;13.558;2023-04-25T10:17:27;7.85;;;2.40;;
47287;SDS011;33020;53.008;13.558;2023-04-25T10:19:55;7.50;;;3.67;;
47287;SDS011;33020;53.008;13.558;2023-04-25T10:22:32;4.80;;;2.75;;
47287;SDS011;33020;53.008;13.558;2023-04-25T10:25:01;8.73;;;2.72;;
47287;SDS011;33020;53.008;13.558;2023-04-25T10:27:30;7.00;;;3.17;;
47287;SDS011;33020;53.008;13.558;2023-04-25T10:30:10;5.10;;;2.58;;
47287;SDS011;33020;53.008;13.558;2023-04-25T10:32:42;8.82;;;2.90;;
47287;SDS011;33020;53.008;13.558;2023-04-25T10:35:13;7.20;;;3.22;;
47287;SDS011;33020;53.008;13.558;2023-04-25T10:40:27;6.82;;;3.03;;
47287;SDS011;33020;53.008;13.558;2023-04-25T10:42:54;8.43;;;2.90;;
47287;SDS011;33020;53.008;13.558;2023-04-25T10:45:22;7.53;;;2.85;;
47287;SDS011;33020;53.008;13.558;2023-04-25T10:47:49;9.20;;;2.88;;
47287;SDS011;33020;53.008;13.558;2023-04-25T10:50:15;4.10;;;2.58;;
47287;SDS011;33020;53.008;13.558;2023-04-25T10:52:43;5.20;;;2.30;;
47287;SDS011;33020;53.008;13.558;2023-04-25T10:55:10;6.13;;;2.75;;
47287;SDS011;33020;53.008;13.558;2023-04-25T10:57:44;5.80;;;3.38;;
47287;SDS011;33020;53.008;13.558;2023-04-25T11:00:18;6.18;;;2.75;;
47287;SDS011;33020;53.008;13.558;2023-04-25T11:02:57;4.40;;;2.20;;
47287;SDS011;33020;53.008;13.558;2023-04-25T11:05:31;5.57;;;2.67;;
47287;SDS011;33020;53.008;13.558;2023-04-25T11:08:12;7.88;;;2.60;;
47287;SDS011;33020;53.008;13.558;2023-04-25T11:10:40;5.72;;;2.30;;
47287;SDS011;33020;53.008;13.558;2023-04-25T11:13:07;6.88;;;2.97;;
47287;SDS011;33020;53.008;13.558;2023-04-25T11:15:34;5.32;;;2.70;;
47287;SDS011;33020;53.008;13.558;2023-04-25T11:18:01;6.57;;;2.78;;
47287;SDS011;33020;53.008;13.558;2023-04-25T11:20:28;4.78;;;2.35;;
47287;SDS011;33020;53.008;13.558;2023-04-25T11:22:57;7.32;;;2.35;;
47287;SDS011;33020;53.008;13.558;2023-04-25T11:25:25;6.93;;;2.47;;
47287;SDS011;33020;53.008;13.558;2023-04-25T11:27:52;8.02;;;2.53;;
47287;SDS011;33020;53.008;13.558;2023-04-25T11:30:20;7.40;;;2.63;;
47287;SDS011;33020;53.008;13.558;2023-04-25T11:32:48;7.00;;;2.30;;
47287;SDS011;33020;53.008;13.558;2023-04-25T11:35:16;7.13;;;2.30;;
47287;SDS011;33020;53.008;13.558;2023-04-25T11:37:43;5.53;;;2.65;;
47287;SDS011;33020;53.008;13.558;2023-04-25T11:40:10;5.30;;;2.47;;
47287;SDS011;33020;53.008;13.558;2023-04-25T11:42:45;5.18;;;2.38;;
47287;SDS011;33020;53.008;13.558;2023-04-25T11:45:13;6.95;;;2.75;;
47287;SDS011;33020;53.008;13.558;2023-04-25T11:47:40;8.75;;;4.35;;
47287;SDS011;33020;53.008;13.558;2023-04-25T11:50:07;3.67;;;2.58;;
47287;SDS011;33020;53.008;13.558;2023-04-25T11:52:41;4.45;;;2.70;;
47287;SDS011;33020;53.008;13.558;2023-04-25T11:55:13;7.47;;;3.17;;
47287;SDS011;33020;53.008;13.558;2023-04-25T11:57:43;6.18;;;2.85;;
47287;SDS011;33020;53.008;13.558;2023-04-25T12:02:43;6.30;;;2.58;;
47287;SDS011;33020;53.008;13.558;2023-04-25T12:05:11;5.80;;;2.60;;
47287;SDS011;33020;53.008;13.558;2023-04-25T12:07:57;5.45;;;2.33;;
47287;SDS011;33020;53.008;13.558;2023-04-25T12:10:24;5.80;;;2.17;;
47287;SDS011;33020;53.008;13.558;2023-04-25T12:12:52;9.77;;;2.30;;
47287;SDS011;33020;53.008;13.558;2023-04-25T12:15:24;4.82;;;2.30;;
47287;SDS011;33020;53.008;13.558;2023-04-25T12:17:53;6.05;;;2.30;;
47287;SDS011;33020;53.008;13.558;2023-04-25T12:20:24;6.72;;;2.50;;
47287;SDS011;33020;53.008;13.558;2023-04-25T12:22:51;10.30;;;3.13;;
47287;SDS011;33020;53.008;13.558;2023-04-25T12:25:37;7.47;;;2.10;;
47287;SDS011;33020;53.008;13.558;2023-04-25T12:28:13;4.15;;;2.47;;
47287;SDS011;33020;53.008;13.558;2023-04-25T12:33:31;7.30;;;2.83;;
47287;SDS011;33020;53.008;13.558;2023-04-25T12:36:03;8.27;;;2.70;;
47287;SDS011;33020;53.008;13.558;2023-04-25T12:38:38;7.28;;;2.88;;
47287;SDS011;33020;53.008;13.558;2023-04-25T12:41:06;8.15;;;2.40;;
47287;SDS011;33020;53.008;13.558;2023-04-25T12:43:33;5.70;;;2.47;;
47287;SDS011;33020;53.008;13.558;2023-04-25T12:46:00;6.90;;;2.80;;
47287;SDS011;33020;53.008;13.558;2023-04-25T12:48:27;9.30;;;3.25;;
47287;SDS011;33020;53.008;13.558;2023-04-25T12:50:54;8.15;;;2.67;;
47287;SDS011;33020;53.008;13.558;2023-04-25T12:53:21;12.13;;;3.42;;
47287;SDS011;33020;53.008;13.558;2023-04-25T12:55:49;5.43;;;2.53;;
47287;SDS011;33020;53.008;13.558;2023-04-25T12:58:16;6.90;;;2.80;;
47287;SDS011;33020;53.008;13.558;2023-04-25T13:00:44;8.85;;;2.03;;
47287;SDS011;33020;53.008;13.558;2023-04-25T13:03:11;8.98;;;2.70;;
47287;SDS011;33020;53.008;13.558;2023-04-25T13:05:39;9.52;;;2.53;;
47287;SDS011;33020;53.008;13.558;2023-04-25T13:08:06;4.88;;;2.22;;
47287;SDS011;33020;53.008;13.558;2023-04-25T13:10:33;5.65;;;2.03;;
47287;SDS011;33020;53.008;13.558;2023-04-25T13:13:00;7.65;;;2.25;;
47287;SDS011;33020;53.008;13.558;2023-04-25T13:15:28;5.18;;;1.98;;
47287;SDS011;33020;53.008;13.558;2023-04-25T13:17:54;4.28;;;2.05;;
47287;SDS011;33020;53.008;13.558;2023-04-25T13:20:22;6.63;;;2.00;;
47287;SDS011;33020;53.008;13.558;2023-04-25T13:22:49;9.75;;;3.80;;
47287;SDS011;33020;53.008;13.558;2023-04-25T13:25:16;6.30;;;3.33;;
47287;SDS011;33020;53.008;13.558;2023-04-25T13:27:43;6.07;;;2.78;;
47287;SDS011;33020;53.008;13.558;2023-04-25T13:30:11;4.63;;;2.40;;
47287;SDS011;33020;53.008;13.558;2023-04-25T13:32:38;8.20;;;2.20;;
47287;SDS011;33020;53.008;13.558;2023-04-25T13:35:08;4.38;;;1.77;;
47287;SDS011;33020;53.008;13.558;2023-04-25T13:37:38;5.17;;;2.63;;
47287;SDS011;33020;53.008;13.558;2023-04-25T13:40:07;6.88;;;2.40;;
47287;SDS011;33020;53.008;13.558;2023-04-25T13:42:38;3.78;;;1.40;;
47287;SDS011;33020;53.008;13.558;2023-04-25T13:45:05;3.10;;;1.40;;
47287;SDS011;33020;53.008;13.558;2023-04-25T13:47:34;7.95;;;2.92;;
47287;SDS011;33020;53.008;13.558;2023-04-25T13:50:00;4.15;;;1.35;;
47287;SDS011;33020;53.008;13.558;2023-04-25T13:52:29;2.90;;;1.50;;
47287;SDS011;33020;53.008;13.558;2023-04-25T13:54:56;6.53;;;1.73;;
47287;SDS011;33020;53.008;13.558;2023-04-25T13:57:25;2.90;;;1.80;;
47287;SDS011;33020;53.008;13.558;2023-04-25T13:59:52;3.40;;;1.33;;
47287;SDS011;33020;53.008;13.558;2023-04-25T14:02:20;4.35;;;1.70;;
47287;SDS011;33020;53.008;13.558;2023-04-25T14:04:47;5.13;;;1.85;;
47287;SDS011;33020;53.008;13.558;2023-04-25T14:07:14;3.92;;;1.77;;
47287;SDS011;33020;53.008;13.558;2023-04-25T14:09:44;5.13;;;1.98;;
47287;SDS011;33020;53.008;13.558;2023-04-25T14:12:15;5.22;;;2.03;;
47287;SDS011;33020;53.008;13.558;2023-04-25T14:14:42;5.53;;;2.00;;
47287;SDS011;33020;53.008;13.558;2023-04-25T14:17:09;9.20;;;2.75;;
47287;SDS011;33020;53.008;13.558;2023-04-25T14:19:36;5.53;;;2.85;;
47287;SDS011;33020;53.008;13.558;2023-04-25T14:22:05;4.53;;;2.00;;
47287;SDS011;33020;53.008;13.558;2023-04-25T14:24:32;5.82;;;2.47;;
47287;SDS011;33020;53.008;13.558;2023-04-25T14:26:58;5.97;;;1.95;;
47287;SDS011;33020;53.008;13.558;2023-04-25T14:29:25;4.60;;;1.98;;
47287;SDS011;33020;53.008;13.558;2023-04-25T14:31:52;4.18;;;1.90;;
47287;SDS011;33020;53.008;13.558;2023-04-25T14:34:20;5.45;;;2.33;;
47287;SDS011;33020;53.008;13.558;2023-04-25T14:36:51;3.58;;;2.13;;
47287;SDS011;33020;53.008;13.558;2023-04-25T14:39:18;5.18;;;2.15;;
47287;SDS011;33020;53.008;13.558;2023-04-25T14:41:45;3.15;;;1.67;;
47287;SDS011;33020;53.008;13.558;2023-04-25T14:44:12;2.85;;;1.60;;
47287;SDS011;33020;53.008;13.558;2023-04-25T14:46:38;3.58;;;1.70;;
47287;SDS011;33020;53.008;13.558;2023-04-25T14:49:05;3.95;;;1.40;;
47287;SDS011;33020;53.008;13.558;2023-04-25T14:51:32;5.10;;;1.75;;